Darlington County Jetport Airport


Codes: KUDG/
Name: Darlington County Jetport Airport
City: Darlington
Country: United States
Elevation: 192 ft.

Photos at Darlington County Jetport Airport


   Photos courtesy of SpottingLog. You can add your own sightings and photos by signing up for a free trial today.



No photos found.

Weather at Darlington County Jetport Airport


Time (UTC)DescriptionTempratureWindCloud coverageVisibilityPressureHumidity
21-Jun-2024 12:00Clear Sky20°C7 mph, NE7%10000m1024hPa90%
21-Jun-2024 15:00Clear Sky26°C9 mph, NE3%10000m1024hPa63%
21-Jun-2024 18:00Clear Sky33°C9 mph, E4%10000m1021hPa30%
21-Jun-2024 21:00Clear Sky34°C7 mph, NE0%10000m1019hPa29%
22-Jun-2024 00:00Clear Sky29°C4 mph, E8%10000m1019hPa50%
22-Jun-2024 03:00Scattered Clouds24°C7 mph, E37%10000m1020hPa79%
22-Jun-2024 06:00Few Clouds22°C4 mph, S18%10000m1020hPa96%
22-Jun-2024 09:00Clear Sky21°C2 mph, S0%10000m1020hPa97%
22-Jun-2024 12:00Clear Sky25°C2 mph, S0%10000m1020hPa83%
22-Jun-2024 15:00Clear Sky32°C2 mph, SE0%10000m1020hPa50%
22-Jun-2024 18:00Clear Sky36°C4 mph, SE9%10000m1017hPa35%
22-Jun-2024 21:00Overcast Clouds33°C7 mph, S85%10000m1015hPa42%
23-Jun-2024 00:00Broken Clouds30°C9 mph, SE57%10000m1015hPa54%
23-Jun-2024 03:00Clear Sky26°C9 mph, S8%10000m1016hPa73%
23-Jun-2024 06:00Clear Sky23°C9 mph, S6%10000m1016hPa93%
23-Jun-2024 09:00Clear Sky22°C4 mph, SW7%10000m1015hPa97%
23-Jun-2024 12:00Clear Sky26°C7 mph, SW7%10000m1015hPa79%
23-Jun-2024 15:00Clear Sky32°C7 mph, SW0%10000m1014hPa48%
23-Jun-2024 18:00Clear Sky36°C7 mph, SW2%10000m1012hPa35%
23-Jun-2024 21:00Overcast Clouds35°C11 mph, S97%10000m1010hPa39%
24-Jun-2024 00:00Overcast Clouds31°C11 mph, S94%10000m1010hPa56%
24-Jun-2024 03:00Overcast Clouds27°C11 mph, S97%10000m1011hPa70%
24-Jun-2024 06:00Broken Clouds24°C7 mph, S83%10000m1011hPa85%
24-Jun-2024 09:00Overcast Clouds24°C7 mph, SW96%10000m1010hPa92%
24-Jun-2024 12:00Overcast Clouds27°C7 mph, SW97%10000m1010hPa71%
24-Jun-2024 15:00Scattered Clouds35°C7 mph, SW50%10000m1010hPa41%
24-Jun-2024 18:00Broken Clouds39°C9 mph, W57%10000m1008hPa25%
24-Jun-2024 21:00Scattered Clouds38°C11 mph, NW32%10000m1006hPa28%
25-Jun-2024 00:00Scattered Clouds33°C9 mph, S43%10000m1007hPa42%
25-Jun-2024 03:00Broken Clouds27°C7 mph, SW76%10000m1010hPa59%
25-Jun-2024 06:00Scattered Clouds25°C4 mph, N49%10000m1010hPa64%
25-Jun-2024 09:00Clear Sky24°C7 mph, N0%10000m1010hPa57%
25-Jun-2024 12:00Clear Sky26°C7 mph, NE0%10000m1012hPa52%
25-Jun-2024 15:00Clear Sky34°C9 mph, NE0%10000m1012hPa36%
25-Jun-2024 18:00Clear Sky38°C7 mph, N0%10000m1011hPa23%
25-Jun-2024 21:00Clear Sky39°C7 mph, N0%10000m1009hPa20%
26-Jun-2024 00:00Clear Sky33°C4 mph, NE0%10000m1009hPa33%
26-Jun-2024 03:00Clear Sky27°C7 mph, S0%10000m1011hPa67%
26-Jun-2024 06:00Clear Sky25°C7 mph, S0%10000m1011hPa78%
26-Jun-2024 09:00Clear Sky23°C4 mph, SW0%10000m1010hPa90%